createdAt,value
2017-11-22T00:01:14.933Z,15.10
2017-11-22T00:03:43.100Z,15.32
2017-11-22T00:06:11.235Z,13.77
2017-11-22T00:08:39.398Z,14.60
2017-11-22T00:11:07.531Z,15.55
2017-11-22T00:13:35.702Z,14.50
2017-11-22T00:16:03.831Z,15.15
2017-11-22T00:18:32.004Z,13.52
2017-11-22T00:21:00.136Z,13.45
2017-11-22T00:23:28.267Z,15.30
2017-11-22T00:25:56.428Z,12.23
2017-11-22T00:28:24.559Z,15.10
2017-11-22T00:30:52.730Z,13.80
2017-11-22T00:33:20.864Z,13.68
2017-11-22T00:35:49.021Z,14.18
2017-11-22T00:38:17.148Z,12.93
2017-11-22T00:40:45.306Z,13.95
2017-11-22T00:43:13.438Z,14.45
2017-11-22T00:45:42.364Z,11.75
2017-11-22T00:48:10.513Z,12.05
2017-11-22T00:50:39.426Z,13.98
2017-11-22T00:53:07.550Z,11.80
2017-11-22T00:55:35.708Z,13.32
2017-11-22T00:58:03.846Z,12.88
2017-11-22T01:00:31.998Z,12.73
2017-11-22T01:03:00.134Z,13.70
2017-11-22T01:05:28.299Z,13.00
2017-11-22T01:07:56.431Z,12.70
2017-11-22T01:10:24.582Z,11.57
2017-11-22T01:12:52.705Z,10.93
2017-11-22T01:15:20.855Z,11.88
2017-11-22T01:17:48.982Z,10.95
2017-11-22T01:20:17.138Z,12.13
2017-11-22T01:22:45.262Z,11.45
2017-11-22T01:25:13.421Z,11.15
2017-11-22T01:27:42.325Z,10.05
2017-11-22T01:30:10.478Z,9.73
2017-11-22T01:32:38.604Z,8.15
2017-11-22T01:35:06.756Z,8.73
2017-11-22T01:37:34.886Z,7.22
2017-11-22T01:40:03.043Z,7.47
2017-11-22T01:42:31.169Z,6.75
2017-11-22T01:44:59.334Z,5.70
2017-11-22T01:47:27.458Z,5.20
2017-11-22T01:49:55.575Z,5.78
2017-11-22T01:52:23.732Z,4.95
2017-11-22T01:54:51.850Z,5.50
2017-11-22T01:57:20.005Z,4.25
2017-11-22T01:59:48.126Z,5.05
2017-11-22T02:02:16.279Z,3.70
2017-11-22T02:04:44.398Z,3.90
2017-11-22T02:09:46.858Z,4.43
2017-11-22T02:12:15.014Z,3.35
2017-11-22T02:14:43.139Z,4.35
2017-11-22T02:17:11.295Z,4.22
2017-11-22T02:19:39.407Z,3.30
2017-11-22T02:22:07.564Z,2.90
2017-11-22T02:24:35.682Z,3.12
2017-11-22T02:27:03.832Z,3.00
2017-11-22T02:29:31.967Z,3.22
2017-11-22T02:32:00.118Z,3.00
2017-11-22T02:34:28.240Z,3.12
2017-11-22T02:36:56.385Z,3.47
2017-11-22T02:39:24.519Z,3.40
2017-11-22T02:41:52.670Z,3.62
2017-11-22T02:44:20.786Z,3.08
2017-11-22T02:46:48.939Z,2.90
2017-11-22T02:49:17.061Z,3.35
2017-11-22T02:51:45.206Z,3.10
2017-11-22T02:54:13.331Z,2.90
2017-11-22T02:56:41.455Z,2.85
2017-11-22T02:59:09.618Z,2.95
2017-11-22T03:01:37.742Z,3.28
2017-11-22T03:04:06.654Z,3.35
2017-11-22T03:06:34.771Z,2.95
2017-11-22T03:09:02.915Z,2.75
2017-11-22T03:11:31.051Z,2.65
2017-11-22T03:13:59.195Z,3.75
2017-11-22T03:16:27.319Z,4.50
2017-11-22T03:18:55.462Z,5.50
2017-11-22T03:21:24.350Z,4.28
2017-11-22T03:23:52.498Z,5.10
2017-11-22T03:26:20.618Z,4.10
2017-11-22T03:28:49.629Z,4.53
2017-11-22T03:31:17.753Z,4.65
2017-11-22T03:33:45.906Z,5.80
2017-11-22T03:36:14.027Z,5.35
2017-11-22T03:38:42.174Z,6.78
2017-11-22T03:41:10.296Z,7.40
2017-11-22T03:43:38.448Z,8.52
2017-11-22T03:46:07.356Z,10.45
2017-11-22T03:48:35.511Z,10.18
2017-11-22T03:51:11.263Z,11.60
2017-11-22T03:53:45.147Z,14.32
2017-11-22T03:56:13.274Z,14.90
2017-11-22T03:58:41.453Z,16.65
2017-11-22T04:01:12.375Z,19.83
2017-11-22T04:03:44.447Z,20.35
2017-11-22T04:06:15.481Z,23.38
2017-11-22T04:08:43.638Z,24.48
2017-11-22T04:11:12.530Z,27.52
2017-11-22T04:13:40.686Z,30.37
2017-11-22T04:16:09.582Z,31.30
2017-11-22T04:18:37.747Z,35.25
2017-11-22T04:21:06.643Z,39.40
2017-11-22T04:23:34.775Z,39.50
2017-11-22T04:26:02.936Z,41.85
2017-11-22T04:28:31.071Z,45.65
2017-11-22T04:30:59.235Z,48.20
2017-11-22T04:33:27.362Z,49.72
2017-11-22T04:35:55.519Z,47.47
2017-11-22T04:38:23.654Z,51.47
2017-11-22T04:40:51.814Z,54.17
2017-11-22T04:43:19.956Z,53.63
2017-11-22T04:45:48.111Z,54.83
2017-11-22T04:48:16.246Z,57.65
2017-11-22T04:50:44.411Z,60.03
2017-11-22T04:53:12.545Z,52.90
2017-11-22T04:55:40.702Z,54.97
2017-11-22T04:58:08.839Z,54.80
2017-11-22T05:00:36.994Z,55.20
2017-11-22T05:03:05.135Z,55.28
2017-11-22T05:05:33.295Z,57.33
2017-11-22T05:08:01.423Z,50.53
2017-11-22T05:10:29.586Z,52.95
2017-11-22T05:12:57.727Z,54.08
2017-11-22T05:15:25.889Z,52.00
2017-11-22T05:17:54.017Z,52.70
2017-11-22T05:20:22.169Z,48.97
2017-11-22T05:22:50.311Z,47.75
2017-11-22T05:25:18.467Z,47.60
2017-11-22T05:27:46.594Z,47.72
2017-11-22T05:30:14.746Z,46.90
2017-11-22T05:32:42.876Z,45.45
2017-11-22T05:35:11.025Z,44.40
2017-11-22T05:37:39.155Z,40.72
2017-11-22T05:40:07.306Z,41.55
2017-11-22T05:42:35.443Z,41.78
2017-11-22T05:45:03.603Z,37.97
2017-11-22T05:47:31.759Z,37.65
2017-11-22T05:49:59.892Z,36.72
2017-11-22T05:52:28.059Z,33.20
2017-11-22T05:54:56.190Z,34.42
2017-11-22T05:57:24.349Z,36.22
2017-11-22T05:59:52.476Z,31.05
2017-11-22T06:02:20.636Z,31.90
2017-11-22T06:04:48.766Z,29.65
2017-11-22T06:07:16.931Z,32.38
2017-11-22T06:09:45.061Z,30.95
2017-11-22T06:12:13.231Z,26.80
2017-11-22T06:14:41.364Z,28.45
2017-11-22T06:17:09.522Z,27.42
2017-11-22T06:19:38.223Z,27.40
2017-11-22T06:22:06.388Z,27.05
2017-11-22T06:24:34.514Z,24.98
2017-11-22T06:27:02.698Z,24.50
2017-11-22T06:29:31.600Z,25.98
2017-11-22T06:31:59.754Z,25.60
2017-11-22T06:34:28.653Z,24.37
2017-11-22T06:36:56.815Z,22.62
2017-11-22T06:39:24.948Z,21.90
2017-11-22T06:41:53.123Z,22.77
2017-11-22T06:44:21.252Z,22.02
2017-11-22T06:46:49.409Z,21.00
2017-11-22T06:49:17.538Z,21.23
2017-11-22T06:51:45.694Z,24.05
2017-11-22T06:54:13.823Z,22.15
2017-11-22T06:56:41.986Z,23.40
2017-11-22T06:59:10.209Z,21.92
2017-11-22T07:01:38.334Z,23.20
2017-11-22T07:04:06.501Z,21.08
2017-11-22T07:06:34.635Z,19.98
2017-11-22T07:09:02.787Z,17.80
2017-11-22T07:11:30.948Z,20.73
2017-11-22T07:13:59.098Z,19.30
2017-11-22T07:16:27.240Z,18.45
2017-11-22T07:18:55.403Z,19.12
2017-11-22T07:21:23.530Z,16.48
2017-11-22T07:23:51.690Z,17.75
2017-11-22T07:26:19.824Z,16.77
2017-11-22T07:28:47.978Z,16.00
2017-11-22T07:31:16.122Z,16.35
2017-11-22T07:33:44.277Z,15.27
2017-11-22T07:36:18.026Z,15.90
2017-11-22T07:38:46.187Z,16.15
2017-11-22T07:41:14.345Z,15.32
2017-11-22T07:43:42.494Z,15.23
2017-11-22T07:46:10.626Z,15.20
2017-11-22T07:48:38.804Z,16.73
2017-11-22T07:51:12.655Z,15.73
2017-11-22T07:53:40.825Z,15.43
2017-11-22T07:56:08.955Z,15.32
2017-11-22T07:58:37.125Z,16.10
2017-11-22T08:01:05.258Z,15.80
2017-11-22T08:03:35.341Z,14.20
2017-11-22T08:06:03.522Z,17.45
2017-11-22T08:08:31.691Z,16.65
2017-11-22T08:10:59.823Z,16.98
2017-11-22T08:13:28.747Z,17.58
2017-11-22T08:15:56.897Z,16.15
2017-11-22T08:18:25.831Z,16.85
2017-11-22T08:20:54.895Z,18.08
2017-11-22T08:23:23.026Z,18.12
2017-11-22T08:25:57.656Z,19.67
2017-11-22T08:28:25.783Z,18.55
2017-11-22T08:30:53.938Z,18.75
2017-11-22T08:33:22.065Z,18.75
2017-11-22T08:35:50.223Z,20.08
2017-11-22T08:38:18.358Z,19.70
2017-11-22T08:40:46.835Z,19.77
2017-11-22T08:43:21.322Z,20.60
2017-11-22T08:45:49.490Z,19.27
2017-11-22T08:48:17.623Z,21.67
2017-11-22T08:50:45.778Z,22.65
2017-11-22T08:53:13.910Z,20.45
2017-11-22T08:55:47.680Z,20.73
2017-11-22T08:58:16.637Z,23.17
2017-11-22T09:00:44.800Z,21.20
2017-11-22T09:03:14.714Z,22.40
2017-11-22T09:05:48.660Z,20.60
2017-11-22T09:08:16.810Z,21.90
2017-11-22T09:10:45.730Z,19.90
2017-11-22T09:13:15.681Z,19.65
2017-11-22T09:15:43.862Z,22.00
2017-11-22T09:18:12.798Z,22.80
2017-11-22T09:20:41.144Z,21.08
2017-11-22T09:23:09.275Z,23.83
2017-11-22T09:25:37.431Z,20.27
2017-11-22T09:28:05.558Z,21.70
2017-11-22T09:30:33.711Z,21.62
2017-11-22T09:33:02.761Z,22.20
2017-11-22T09:35:30.922Z,20.50
2017-11-22T09:37:59.059Z,19.60
2017-11-22T09:40:27.211Z,19.65
2017-11-22T09:42:55.351Z,20.37
2017-11-22T09:45:24.272Z,18.60
2017-11-22T09:47:52.419Z,17.48
2017-11-22T09:50:20.594Z,21.65
2017-11-22T09:52:48.735Z,18.55
2017-11-22T09:55:16.895Z,19.80
2017-11-22T09:57:45.029Z,19.92
2017-11-22T10:00:13.388Z,18.80
2017-11-22T10:02:42.283Z,18.45
2017-11-22T10:05:10.459Z,18.10
2017-11-22T10:07:38.595Z,17.30
2017-11-22T10:10:06.776Z,18.55
2017-11-22T10:12:34.914Z,16.77
2017-11-22T10:15:03.078Z,18.70
2017-11-22T10:17:32.000Z,17.30
2017-11-22T10:20:04.124Z,17.92
2017-11-22T10:22:37.837Z,20.12
2017-11-22T10:25:09.829Z,19.00
2017-11-22T10:27:47.875Z,18.08
2017-11-22T10:30:16.053Z,18.50
2017-11-22T10:32:50.001Z,20.65
2017-11-22T10:35:18.180Z,18.65
2017-11-22T10:37:46.343Z,18.98
2017-11-22T10:40:14.482Z,18.80
2017-11-22T10:42:43.411Z,19.40
2017-11-22T10:45:11.551Z,19.77
2017-11-22T10:47:39.714Z,19.12
2017-11-22T10:50:07.896Z,18.55
2017-11-22T10:52:36.324Z,16.52
2017-11-22T10:55:04.474Z,17.30
2017-11-22T10:57:32.638Z,18.30
2017-11-22T11:00:00.769Z,18.20
2017-11-22T11:02:28.937Z,18.37
2017-11-22T11:04:57.087Z,17.83
2017-11-22T11:07:25.269Z,19.00
2017-11-22T11:09:53.421Z,19.33
2017-11-22T11:12:21.585Z,17.55
2017-11-22T11:14:49.718Z,19.37
2017-11-22T11:17:18.647Z,17.87
2017-11-22T11:19:46.782Z,18.40
2017-11-22T11:22:14.945Z,19.20
2017-11-22T11:24:43.087Z,17.98
2017-11-22T11:27:11.253Z,18.52
2017-11-22T11:29:39.420Z,16.90
2017-11-22T11:32:07.643Z,16.87
2017-11-22T11:34:35.783Z,15.98
2017-11-22T11:37:03.947Z,16.67
2017-11-22T11:39:32.191Z,16.90
2017-11-22T11:42:01.139Z,16.25
2017-11-22T11:44:29.300Z,16.15
2017-11-22T11:46:57.429Z,15.85
2017-11-22T11:49:25.590Z,17.25
2017-11-22T11:51:53.736Z,14.80
2017-11-22T11:54:21.938Z,13.90
2017-11-22T11:56:50.072Z,14.93
2017-11-22T11:59:18.238Z,17.90
2017-11-22T12:01:46.373Z,14.00
2017-11-22T12:04:14.535Z,14.02
2017-11-22T12:06:42.670Z,15.65
2017-11-22T12:09:10.828Z,13.10
2017-11-22T12:11:38.964Z,12.15
2017-11-22T12:14:07.889Z,13.98
2017-11-22T12:16:36.025Z,12.88
2017-11-22T12:19:04.951Z,12.40
2017-11-22T12:21:38.680Z,13.85
2017-11-22T12:24:07.673Z,12.75
2017-11-22T12:26:35.812Z,12.30
2017-11-22T12:29:03.978Z,12.77
2017-11-22T12:31:32.110Z,12.82
2017-11-22T12:34:00.278Z,13.62
2017-11-22T12:36:28.409Z,13.57
2017-11-22T12:38:56.567Z,14.10
2017-11-22T12:41:24.702Z,15.15
2017-11-22T12:43:52.864Z,13.75
2017-11-22T12:46:20.993Z,14.93
2017-11-22T12:48:49.163Z,14.30
2017-11-22T12:51:17.302Z,14.85
2017-11-22T12:53:45.496Z,15.32
2017-11-22T12:56:13.637Z,14.98
2017-11-22T12:58:41.775Z,15.35
2017-11-22T13:01:09.931Z,14.48
2017-11-22T13:03:38.067Z,14.63
2017-11-22T13:06:06.234Z,15.20
2017-11-22T13:08:35.978Z,17.08
2017-11-22T13:11:10.066Z,16.10
2017-11-22T13:13:38.207Z,15.20
2017-11-22T13:16:06.367Z,14.55
2017-11-22T13:18:34.504Z,15.85
2017-11-22T13:21:02.663Z,16.48
2017-11-22T13:23:30.798Z,17.40
2017-11-22T13:25:58.961Z,16.12
2017-11-22T13:28:27.098Z,16.73
2017-11-22T13:30:55.258Z,16.45
2017-11-22T13:33:23.392Z,15.98
2017-11-22T13:35:51.558Z,17.02
2017-11-22T13:38:19.686Z,16.17
2017-11-22T13:40:47.860Z,15.00
2017-11-22T13:43:16.000Z,15.27
2017-11-22T13:45:44.168Z,16.27
2017-11-22T13:48:12.385Z,14.95
2017-11-22T13:50:40.555Z,15.23
2017-11-22T13:53:09.474Z,15.60
2017-11-22T13:55:37.698Z,15.55
2017-11-22T13:58:05.853Z,13.32
2017-11-22T14:00:33.992Z,14.73
2017-11-22T14:03:02.150Z,14.50
2017-11-22T14:05:31.078Z,14.32
2017-11-22T14:07:59.246Z,13.95
2017-11-22T14:10:27.416Z,14.77
2017-11-22T14:12:55.603Z,13.32
2017-11-22T14:15:23.755Z,13.00
2017-11-22T14:17:51.915Z,12.75
2017-11-22T14:20:20.068Z,10.65
2017-11-22T14:22:48.285Z,12.57
2017-11-22T14:25:16.514Z,13.25
2017-11-22T14:27:44.677Z,12.23
2017-11-22T14:30:12.815Z,11.85
2017-11-22T14:32:40.990Z,11.45
2017-11-22T14:35:09.130Z,13.52
2017-11-22T14:37:37.814Z,12.57
2017-11-22T14:40:05.963Z,14.02
2017-11-22T14:42:34.152Z,14.65
2017-11-22T14:45:02.316Z,13.95
2017-11-22T14:47:30.490Z,14.45
2017-11-22T14:49:58.647Z,15.50
2017-11-22T14:52:26.859Z,14.50
2017-11-22T14:54:55.026Z,16.05
2017-11-22T14:57:24.031Z,15.20
2017-11-22T14:59:52.647Z,16.83
2017-11-22T15:02:20.863Z,15.75
2017-11-22T15:04:49.056Z,16.08
2017-11-22T15:07:17.362Z,14.95
2017-11-22T15:09:45.514Z,15.63
2017-11-22T15:12:13.716Z,16.65
2017-11-22T15:14:42.004Z,16.65
2017-11-22T15:17:10.265Z,17.10
2017-11-22T15:19:38.432Z,16.33
2017-11-22T15:22:06.636Z,16.45
2017-11-22T15:24:34.809Z,17.23
2017-11-22T15:27:03.021Z,17.52
2017-11-22T15:29:31.938Z,18.25
2017-11-22T15:32:00.217Z,18.75
2017-11-22T15:34:28.414Z,19.75
2017-11-22T15:36:56.548Z,19.12
2017-11-22T15:39:25.517Z,23.83
2017-11-22T15:41:53.713Z,24.87
2017-11-22T15:44:21.865Z,20.58
2017-11-22T15:46:50.040Z,21.95
2017-11-22T15:49:18.184Z,23.30
2017-11-22T15:51:46.360Z,22.52
2017-11-22T15:54:14.525Z,22.33
2017-11-22T15:56:42.669Z,23.50
2017-11-22T15:59:10.840Z,24.58
2017-11-22T16:01:38.994Z,24.65
2017-11-22T16:04:07.173Z,25.73
2017-11-22T16:06:36.072Z,25.62
2017-11-22T16:09:04.247Z,26.27
2017-11-22T16:11:32.382Z,25.95
2017-11-22T16:14:00.547Z,24.55
2017-11-22T16:16:28.702Z,26.25
2017-11-22T16:18:56.870Z,25.33
2017-11-22T16:21:25.014Z,26.65
2017-11-22T16:23:53.243Z,24.45
2017-11-22T16:26:21.411Z,24.85
2017-11-22T16:28:49.588Z,25.08
2017-11-22T16:31:17.729Z,26.27
2017-11-22T16:33:45.898Z,24.85
2017-11-22T16:36:14.041Z,24.05
2017-11-22T16:38:42.205Z,24.65
2017-11-22T16:41:10.337Z,22.90
2017-11-22T16:43:38.507Z,23.90
2017-11-22T16:46:06.651Z,24.02
2017-11-22T16:48:34.787Z,24.70
2017-11-22T16:51:02.950Z,30.45
2017-11-22T16:53:31.146Z,24.70
2017-11-22T16:55:59.308Z,30.85
2017-11-22T16:58:27.452Z,26.30
2017-11-22T17:00:55.657Z,28.92
2017-11-22T17:03:23.802Z,23.90
2017-11-22T17:05:51.991Z,24.98
2017-11-22T17:08:20.138Z,23.30
2017-11-22T17:10:48.317Z,22.73
2017-11-22T17:13:16.452Z,20.88
2017-11-22T17:15:44.647Z,20.95
2017-11-22T17:18:12.804Z,22.52
2017-11-22T17:20:41.772Z,21.95
2017-11-22T17:23:09.908Z,21.48
2017-11-22T17:25:38.088Z,21.95
2017-11-22T17:28:06.243Z,18.05
2017-11-22T17:30:34.526Z,21.87
2017-11-22T17:33:02.696Z,19.73
2017-11-22T17:35:30.862Z,20.40
2017-11-22T17:37:58.994Z,20.12
2017-11-22T17:40:27.132Z,20.62
2017-11-22T17:42:55.661Z,20.08
2017-11-22T17:45:23.907Z,21.90
2017-11-22T17:47:52.086Z,19.58
2017-11-22T17:50:20.362Z,19.70
2017-11-22T17:52:48.607Z,21.65
2017-11-22T17:55:16.786Z,20.65
2017-11-22T17:57:45.057Z,21.20
2017-11-22T18:00:13.284Z,21.80
2017-11-22T18:02:42.326Z,21.20
2017-11-22T18:05:10.657Z,22.13
2017-11-22T18:07:39.725Z,21.50
2017-11-22T18:10:08.008Z,18.08
2017-11-22T18:12:36.298Z,20.08
2017-11-22T18:15:04.674Z,19.65
2017-11-22T18:17:33.011Z,19.60
2017-11-22T18:20:01.355Z,19.87
2017-11-22T18:22:29.728Z,22.00
2017-11-22T18:24:58.122Z,20.42
2017-11-22T18:27:26.504Z,21.45
2017-11-22T18:29:54.666Z,20.37
2017-11-22T18:32:22.852Z,18.42
2017-11-22T18:34:50.998Z,19.73
2017-11-22T18:37:20.152Z,20.08
2017-11-22T18:39:48.394Z,19.73
2017-11-22T18:42:16.618Z,17.87
2017-11-22T18:44:44.991Z,18.70
2017-11-22T18:47:13.656Z,16.17
2017-11-22T18:49:41.835Z,19.55
2017-11-22T18:52:10.290Z,15.88
2017-11-22T18:54:39.069Z,15.45
2017-11-22T18:57:08.269Z,18.70
2017-11-22T18:59:37.512Z,16.60
2017-11-22T19:02:05.973Z,16.75
2017-11-22T19:04:34.174Z,16.52
2017-11-22T19:07:02.366Z,17.10
2017-11-22T19:09:30.519Z,17.85
2017-11-22T19:11:58.765Z,16.37
2017-11-22T19:14:27.812Z,16.40
2017-11-22T19:16:56.245Z,17.27
2017-11-22T19:19:24.575Z,16.85
2017-11-22T19:21:53.059Z,16.23
2017-11-22T19:24:21.915Z,17.75
2017-11-22T19:26:50.475Z,18.12
2017-11-22T19:29:26.672Z,16.65
2017-11-22T19:31:54.838Z,15.95
2017-11-22T19:34:22.995Z,15.00
2017-11-22T19:36:51.127Z,16.02
2017-11-22T19:39:20.062Z,15.80
2017-11-22T19:41:48.308Z,12.93
2017-11-22T19:44:16.483Z,17.87
2017-11-22T19:46:44.676Z,15.60
2017-11-22T19:49:12.918Z,15.68
2017-11-22T19:51:41.172Z,18.60
2017-11-22T19:54:09.359Z,15.20
2017-11-22T19:56:37.498Z,17.40
2017-11-22T19:59:05.671Z,17.58
2017-11-22T20:01:33.819Z,15.50
2017-11-22T20:04:02.114Z,16.35
2017-11-22T20:06:30.335Z,17.20
2017-11-22T20:09:03.553Z,17.17
2017-11-22T20:11:31.776Z,16.42
2017-11-22T20:13:59.910Z,16.85
2017-11-22T20:16:28.147Z,17.67
2017-11-22T20:18:56.357Z,15.70
2017-11-22T20:21:24.534Z,15.95
2017-11-22T20:23:52.731Z,15.70
2017-11-22T20:26:20.991Z,16.55
2017-11-22T20:28:49.140Z,17.25
2017-11-22T20:31:17.321Z,17.48
2017-11-22T20:33:45.450Z,15.68
2017-11-22T20:36:13.643Z,15.70
2017-11-22T20:38:41.780Z,18.27
2017-11-22T20:41:09.973Z,16.60
2017-11-22T20:43:38.101Z,16.45
2017-11-22T20:46:06.336Z,15.65
2017-11-22T20:48:35.247Z,15.55
2017-11-22T20:51:03.425Z,15.30
2017-11-22T20:53:31.575Z,16.73
2017-11-22T20:55:59.780Z,16.10
2017-11-22T20:58:27.961Z,15.82
2017-11-22T21:00:56.144Z,16.10
2017-11-22T21:03:24.328Z,16.98
2017-11-22T21:05:52.476Z,15.45
2017-11-22T21:08:20.632Z,15.95
2017-11-22T21:10:49.546Z,16.15
2017-11-22T21:13:17.761Z,14.65
2017-11-22T21:15:45.935Z,14.70
2017-11-22T21:18:14.118Z,16.02
2017-11-22T21:20:42.285Z,14.82
2017-11-22T21:23:10.487Z,14.00
2017-11-22T21:25:39.396Z,13.95
2017-11-22T21:28:08.540Z,15.48
2017-11-22T21:30:36.678Z,15.10
2017-11-22T21:33:04.860Z,16.40
2017-11-22T21:35:33.043Z,15.30
2017-11-22T21:38:01.317Z,14.85
2017-11-22T21:40:29.539Z,16.20
2017-11-22T21:42:58.491Z,15.05
2017-11-22T21:45:26.677Z,13.77
2017-11-22T21:47:54.865Z,14.60
2017-11-22T21:50:23.026Z,14.65
2017-11-22T21:52:51.181Z,15.20
2017-11-22T21:55:19.369Z,14.48
2017-11-22T21:57:47.540Z,13.32
2017-11-22T22:00:15.742Z,14.68
2017-11-22T22:02:43.890Z,15.07
2017-11-22T22:05:12.091Z,13.70
2017-11-22T22:07:40.228Z,13.75
2017-11-22T22:10:08.394Z,14.73
2017-11-22T22:12:36.519Z,12.57
2017-11-22T22:15:05.449Z,14.80
2017-11-22T22:17:33.585Z,13.65
2017-11-22T22:20:02.509Z,14.82
2017-11-22T22:22:30.650Z,14.38
2017-11-22T22:24:59.579Z,14.68
2017-11-22T22:27:27.724Z,15.30
2017-11-22T22:29:56.656Z,13.45
2017-11-22T22:32:24.794Z,14.23
2017-11-22T22:34:52.955Z,14.05
2017-11-22T22:37:21.083Z,13.30
2017-11-22T22:39:49.238Z,16.35
2017-11-22T22:42:17.366Z,12.27
2017-11-22T22:44:45.529Z,12.40
2017-11-22T22:47:13.658Z,14.70
2017-11-22T22:49:41.811Z,11.40
2017-11-22T22:52:09.939Z,15.32
2017-11-22T22:54:38.099Z,14.55
2017-11-22T22:57:06.238Z,13.50
2017-11-22T22:59:34.396Z,14.00
2017-11-22T23:02:02.532Z,14.70
2017-11-22T23:04:30.696Z,14.93
2017-11-22T23:06:58.830Z,14.43
2017-11-22T23:09:26.990Z,14.40
2017-11-22T23:11:55.149Z,14.60
2017-11-22T23:14:23.289Z,15.10
2017-11-22T23:16:51.447Z,15.40
2017-11-22T23:19:19.589Z,13.88
2017-11-22T23:21:47.744Z,14.32
2017-11-22T23:24:16.643Z,15.52
2017-11-22T23:26:44.802Z,14.68
2017-11-22T23:29:12.926Z,17.23
2017-11-22T23:31:41.080Z,14.00
2017-11-22T23:34:09.214Z,14.82
2017-11-22T23:36:37.370Z,13.32
2017-11-22T23:39:05.498Z,15.50
2017-11-22T23:41:33.650Z,14.93
2017-11-22T23:44:01.779Z,14.25
2017-11-22T23:46:29.934Z,14.98
2017-11-22T23:48:58.070Z,14.35
2017-11-22T23:51:26.986Z,13.80
2017-11-22T23:53:55.118Z,14.43
2017-11-22T23:56:23.281Z,13.98
2017-11-22T23:58:51.413Z,15.07
